sensor_id;sensor_type;location;lat;lon;timestamp;temperature;humidity
19920;DHT22;10122;50.074;19.920;2022-11-20T00:00:00;-2.00;99.90
19920;DHT22;10122;50.074;19.920;2022-11-20T00:02:26;-2.10;99.90
19920;DHT22;10122;50.074;19.920;2022-11-20T00:04:52;-2.10;99.90
19920;DHT22;10122;50.074;19.920;2022-11-20T00:07:17;-2.20;99.90
19920;DHT22;10122;50.074;19.920;2022-11-20T00:09:43;-2.20;99.90
19920;DHT22;10122;50.074;19.920;2022-11-20T00:12:08;-2.20;99.90
19920;DHT22;10122;50.074;19.920;2022-11-20T00:14:34;-2.20;99.90
19920;DHT22;10122;50.074;19.920;2022-11-20T00:17:00;-2.20;99.90
19920;DHT22;10122;50.074;19.920;2022-11-20T00:19:25;-2.20;99.90
19920;DHT22;10122;50.074;19.920;2022-11-20T00:21:51;-2.20;99.90
19920;DHT22;10122;50.074;19.920;2022-11-20T00:24:19;-2.20;99.90
19920;DHT22;10122;50.074;19.920;2022-11-20T00:26:44;-2.30;99.90
19920;DHT22;10122;50.074;19.920;2022-11-20T00:29:10;-2.30;99.90
19920;DHT22;10122;50.074;19.920;2022-11-20T00:31:36;-2.30;99.90
19920;DHT22;10122;50.074;19.920;2022-11-20T00:34:01;-2.30;99.90
19920;DHT22;10122;50.074;19.920;2022-11-20T00:36:28;-2.30;99.90
19920;DHT22;10122;50.074;19.920;2022-11-20T00:38:56;-2.40;99.90
19920;DHT22;10122;50.074;19.920;2022-11-20T00:41:23;-2.40;99.90
19920;DHT22;10122;50.074;19.920;2022-11-20T00:43:49;-2.40;99.90
19920;DHT22;10122;50.074;19.920;2022-11-20T00:46:20;-2.40;99.90
19920;DHT22;10122;50.074;19.920;2022-11-20T00:48:46;-2.40;99.90
19920;DHT22;10122;50.074;19.920;2022-11-20T00:51:14;-2.40;99.90
19920;DHT22;10122;50.074;19.920;2022-11-20T00:53:40;-2.50;99.90
19920;DHT22;10122;50.074;19.920;2022-11-20T00:56:09;-2.50;99.90
19920;DHT22;10122;50.074;19.920;2022-11-20T00:58:37;-2.60;99.90
19920;DHT22;10122;50.074;19.920;2022-11-20T01:01:12;-2.60;99.90
19920;DHT22;10122;50.074;19.920;2022-11-20T01:03:40;-2.50;99.90
19920;DHT22;10122;50.074;19.920;2022-11-20T01:06:12;-2.50;99.90
19920;DHT22;10122;50.074;19.920;2022-11-20T01:08:38;-2.50;99.90
19920;DHT22;10122;50.074;19.920;2022-11-20T01:11:16;-2.50;99.90
19920;DHT22;10122;50.074;19.920;2022-11-20T01:13:43;-2.40;99.90
19920;DHT22;10122;50.074;19.920;2022-11-20T01:18:45;-2.40;99.90
19920;DHT22;10122;50.074;19.920;2022-11-20T01:21:13;-2.50;99.90
19920;DHT22;10122;50.074;19.920;2022-11-20T01:23:41;-2.50;99.90
19920;DHT22;10122;50.074;19.920;2022-11-20T01:26:10;-2.50;99.90
19920;DHT22;10122;50.074;19.920;2022-11-20T01:28:36;-2.50;99.90
19920;DHT22;10122;50.074;19.920;2022-11-20T01:31:11;-2.50;99.90
19920;DHT22;10122;50.074;19.920;2022-11-20T01:33:37;-2.60;99.90
19920;DHT22;10122;50.074;19.920;2022-11-20T01:36:04;-2.60;99.90
19920;DHT22;10122;50.074;19.920;2022-11-20T01:38:30;-2.60;99.90
19920;DHT22;10122;50.074;19.920;2022-11-20T01:40:56;-2.60;99.90
19920;DHT22;10122;50.074;19.920;2022-11-20T01:43:23;-2.60;99.90
19920;DHT22;10122;50.074;19.920;2022-11-20T01:48:16;-2.60;99.90
19920;DHT22;10122;50.074;19.920;2022-11-20T01:50:42;-2.70;99.90
19920;DHT22;10122;50.074;19.920;2022-11-20T01:53:12;-2.70;99.90
19920;DHT22;10122;50.074;19.920;2022-11-20T01:55:50;-2.70;99.90
19920;DHT22;10122;50.074;19.920;2022-11-20T01:58:20;-2.70;99.90
19920;DHT22;10122;50.074;19.920;2022-11-20T02:00:47;-2.70;99.90
19920;DHT22;10122;50.074;19.920;2022-11-20T02:03:16;-2.70;99.90
19920;DHT22;10122;50.074;19.920;2022-11-20T02:08:23;-2.70;99.90
19920;DHT22;10122;50.074;19.920;2022-11-20T02:10:49;-2.80;99.90
19920;DHT22;10122;50.074;19.920;2022-11-20T02:13:15;-2.90;99.90
19920;DHT22;10122;50.074;19.920;2022-11-20T02:16:00;-2.80;99.90
19920;DHT22;10122;50.074;19.920;2022-11-20T02:18:26;-2.90;99.90
19920;DHT22;10122;50.074;19.920;2022-11-20T02:20:59;-2.90;99.90
19920;DHT22;10122;50.074;19.920;2022-11-20T02:23:39;-2.90;99.90
19920;DHT22;10122;50.074;19.920;2022-11-20T02:26:12;-2.90;99.90
19920;DHT22;10122;50.074;19.920;2022-11-20T02:28:39;-2.90;99.90
19920;DHT22;10122;50.074;19.920;2022-11-20T02:31:05;-3.00;99.90
19920;DHT22;10122;50.074;19.920;2022-11-20T02:33:30;-3.00;99.90
19920;DHT22;10122;50.074;19.920;2022-11-20T02:35:56;-3.00;99.90
19920;DHT22;10122;50.074;19.920;2022-11-20T02:38:22;-3.00;99.90
19920;DHT22;10122;50.074;19.920;2022-11-20T02:40:47;-3.10;99.90
19920;DHT22;10122;50.074;19.920;2022-11-20T02:43:15;-3.10;99.90
19920;DHT22;10122;50.074;19.920;2022-11-20T02:45:40;-3.10;99.90
19920;DHT22;10122;50.074;19.920;2022-11-20T02:48:06;-3.10;99.90
19920;DHT22;10122;50.074;19.920;2022-11-20T02:50:33;-3.10;99.90
19920;DHT22;10122;50.074;19.920;2022-11-20T02:52:58;-3.10;99.90
19920;DHT22;10122;50.074;19.920;2022-11-20T02:55:24;-3.10;99.90
19920;DHT22;10122;50.074;19.920;2022-11-20T02:57:49;-3.10;99.90
19920;DHT22;10122;50.074;19.920;2022-11-20T03:00:15;-3.10;99.90
19920;DHT22;10122;50.074;19.920;2022-11-20T03:02:41;-3.20;99.90
19920;DHT22;10122;50.074;19.920;2022-11-20T03:05:06;-3.20;99.90
19920;DHT22;10122;50.074;19.920;2022-11-20T03:07:32;-3.20;99.90
19920;DHT22;10122;50.074;19.920;2022-11-20T03:09:58;-3.20;99.90
19920;DHT22;10122;50.074;19.920;2022-11-20T03:12:23;-3.20;99.90
19920;DHT22;10122;50.074;19.920;2022-11-20T03:14:49;-3.20;99.90
19920;DHT22;10122;50.074;19.920;2022-11-20T03:17:16;-3.30;99.90
19920;DHT22;10122;50.074;19.920;2022-11-20T03:19:41;-3.20;99.90
19920;DHT22;10122;50.074;19.920;2022-11-20T03:22:07;-3.20;99.90
19920;DHT22;10122;50.074;19.920;2022-11-20T03:24:33;-3.20;99.90
19920;DHT22;10122;50.074;19.920;2022-11-20T03:26:58;-3.20;99.90
19920;DHT22;10122;50.074;19.920;2022-11-20T03:29:24;-3.20;99.90
19920;DHT22;10122;50.074;19.920;2022-11-20T03:31:50;-3.20;99.90
19920;DHT22;10122;50.074;19.920;2022-11-20T03:34:15;-3.20;99.90
19920;DHT22;10122;50.074;19.920;2022-11-20T03:36:43;-3.20;99.90
19920;DHT22;10122;50.074;19.920;2022-11-20T03:39:09;-3.20;99.90
19920;DHT22;10122;50.074;19.920;2022-11-20T03:41:39;-3.30;99.90
19920;DHT22;10122;50.074;19.920;2022-11-20T03:44:07;-3.30;99.90
19920;DHT22;10122;50.074;19.920;2022-11-20T03:46:33;-3.20;99.90
19920;DHT22;10122;50.074;19.920;2022-11-20T03:49:00;-3.20;99.90
19920;DHT22;10122;50.074;19.920;2022-11-20T03:51:28;-3.30;99.90
19920;DHT22;10122;50.074;19.920;2022-11-20T03:53:55;-3.20;99.90
19920;DHT22;10122;50.074;19.920;2022-11-20T03:56:33;-3.30;99.90
19920;DHT22;10122;50.074;19.920;2022-11-20T03:58:59;-3.30;99.90
19920;DHT22;10122;50.074;19.920;2022-11-20T04:01:28;-3.30;99.90
19920;DHT22;10122;50.074;19.920;2022-11-20T04:03:55;-3.30;99.90
19920;DHT22;10122;50.074;19.920;2022-11-20T04:06:24;-3.40;99.90
19920;DHT22;10122;50.074;19.920;2022-11-20T04:08:50;-3.40;99.90
19920;DHT22;10122;50.074;19.920;2022-11-20T04:11:18;-3.40;99.90
19920;DHT22;10122;50.074;19.920;2022-11-20T04:13:48;-3.40;99.90
19920;DHT22;10122;50.074;19.920;2022-11-20T04:16:14;-3.40;99.90
19920;DHT22;10122;50.074;19.920;2022-11-20T04:18:40;-3.40;99.90
19920;DHT22;10122;50.074;19.920;2022-11-20T04:21:06;-3.50;99.90
19920;DHT22;10122;50.074;19.920;2022-11-20T04:23:32;-3.50;99.90
19920;DHT22;10122;50.074;19.920;2022-11-20T04:26:06;-3.50;99.90
19920;DHT22;10122;50.074;19.920;2022-11-20T04:28:32;-3.50;99.90
19920;DHT22;10122;50.074;19.920;2022-11-20T04:31:08;-3.60;99.90
19920;DHT22;10122;50.074;19.920;2022-11-20T04:33:35;-3.60;99.90
19920;DHT22;10122;50.074;19.920;2022-11-20T04:36:06;-3.60;99.90
19920;DHT22;10122;50.074;19.920;2022-11-20T04:38:32;-3.60;99.90
19920;DHT22;10122;50.074;19.920;2022-11-20T04:41:05;-3.60;99.90
19920;DHT22;10122;50.074;19.920;2022-11-20T04:43:32;-3.70;99.90
19920;DHT22;10122;50.074;19.920;2022-11-20T04:45:59;-3.70;99.90
19920;DHT22;10122;50.074;19.920;2022-11-20T04:48:26;-3.60;99.90
19920;DHT22;10122;50.074;19.920;2022-11-20T04:50:52;-3.60;99.90
19920;DHT22;10122;50.074;19.920;2022-11-20T04:53:19;-3.60;99.90
19920;DHT22;10122;50.074;19.920;2022-11-20T04:55:45;-3.60;99.90
19920;DHT22;10122;50.074;19.920;2022-11-20T04:58:11;-3.60;99.90
19920;DHT22;10122;50.074;19.920;2022-11-20T05:00:36;-3.60;99.90
19920;DHT22;10122;50.074;19.920;2022-11-20T05:03:02;-3.60;99.90
19920;DHT22;10122;50.074;19.920;2022-11-20T05:05:28;-3.70;99.90
19920;DHT22;10122;50.074;19.920;2022-11-20T05:07:56;-3.70;99.90
19920;DHT22;10122;50.074;19.920;2022-11-20T05:10:23;-3.70;99.90
19920;DHT22;10122;50.074;19.920;2022-11-20T05:12:48;-3.70;99.90
19920;DHT22;10122;50.074;19.920;2022-11-20T05:15:14;-3.80;99.90
19920;DHT22;10122;50.074;19.920;2022-11-20T05:17:40;-3.80;99.90
19920;DHT22;10122;50.074;19.920;2022-11-20T05:20:06;-3.80;99.90
19920;DHT22;10122;50.074;19.920;2022-11-20T05:22:32;-3.80;99.90
19920;DHT22;10122;50.074;19.920;2022-11-20T05:24:57;-3.80;99.90
19920;DHT22;10122;50.074;19.920;2022-11-20T05:27:23;-3.80;99.90
19920;DHT22;10122;50.074;19.920;2022-11-20T05:29:48;-3.80;99.90
19920;DHT22;10122;50.074;19.920;2022-11-20T05:32:14;-3.80;99.90
19920;DHT22;10122;50.074;19.920;2022-11-20T05:34:40;-3.90;99.90
19920;DHT22;10122;50.074;19.920;2022-11-20T05:37:05;-3.90;99.90
19920;DHT22;10122;50.074;19.920;2022-11-20T05:39:31;-3.90;99.90
19920;DHT22;10122;50.074;19.920;2022-11-20T05:41:56;-3.90;99.90
19920;DHT22;10122;50.074;19.920;2022-11-20T05:44:40;-3.90;99.90
19920;DHT22;10122;50.074;19.920;2022-11-20T05:47:06;-3.90;99.90
19920;DHT22;10122;50.074;19.920;2022-11-20T05:49:32;-3.90;99.90
19920;DHT22;10122;50.074;19.920;2022-11-20T05:51:58;-3.90;99.90
19920;DHT22;10122;50.074;19.920;2022-11-20T05:54:23;-3.80;99.90
19920;DHT22;10122;50.074;19.920;2022-11-20T05:56:49;-3.80;99.90
19920;DHT22;10122;50.074;19.920;2022-11-20T05:59:15;-3.80;99.90
19920;DHT22;10122;50.074;19.920;2022-11-20T06:01:40;-3.80;99.90
19920;DHT22;10122;50.074;19.920;2022-11-20T06:04:06;-3.80;99.90
19920;DHT22;10122;50.074;19.920;2022-11-20T06:06:32;-3.80;99.90
19920;DHT22;10122;50.074;19.920;2022-11-20T06:08:58;-3.80;99.90
19920;DHT22;10122;50.074;19.920;2022-11-20T06:11:24;-3.80;99.90
19920;DHT22;10122;50.074;19.920;2022-11-20T06:13:51;-3.90;99.90
19920;DHT22;10122;50.074;19.920;2022-11-20T06:16:18;-3.80;99.90
19920;DHT22;10122;50.074;19.920;2022-11-20T06:18:44;-3.80;99.90
19920;DHT22;10122;50.074;19.920;2022-11-20T06:21:15;-3.90;99.90
19920;DHT22;10122;50.074;19.920;2022-11-20T06:23:41;-3.90;99.90
19920;DHT22;10122;50.074;19.920;2022-11-20T06:26:10;-3.90;99.90
19920;DHT22;10122;50.074;19.920;2022-11-20T06:28:36;-3.90;99.90
19920;DHT22;10122;50.074;19.920;2022-11-20T06:31:02;-3.80;99.90
19920;DHT22;10122;50.074;19.920;2022-11-20T06:33:28;-3.80;99.90
19920;DHT22;10122;50.074;19.920;2022-11-20T06:36:00;-3.80;99.90
19920;DHT22;10122;50.074;19.920;2022-11-20T06:38:27;-3.80;99.90
19920;DHT22;10122;50.074;19.920;2022-11-20T06:40:53;-3.80;99.90
19920;DHT22;10122;50.074;19.920;2022-11-20T06:43:18;-3.70;99.90
19920;DHT22;10122;50.074;19.920;2022-11-20T06:45:44;-3.60;99.90
19920;DHT22;10122;50.074;19.920;2022-11-20T06:48:10;-3.60;99.90
19920;DHT22;10122;50.074;19.920;2022-11-20T06:50:39;-3.60;99.90
19920;DHT22;10122;50.074;19.920;2022-11-20T06:53:05;-3.60;99.90
19920;DHT22;10122;50.074;19.920;2022-11-20T06:55:31;-3.60;99.90
19920;DHT22;10122;50.074;19.920;2022-11-20T06:57:57;-3.50;99.90
19920;DHT22;10122;50.074;19.920;2022-11-20T07:00:23;-3.60;99.90
19920;DHT22;10122;50.074;19.920;2022-11-20T07:02:49;-3.60;99.90
19920;DHT22;10122;50.074;19.920;2022-11-20T07:05:15;-3.50;99.90
19920;DHT22;10122;50.074;19.920;2022-11-20T07:07:41;-3.50;99.90
19920;DHT22;10122;50.074;19.920;2022-11-20T07:10:07;-3.50;99.90
19920;DHT22;10122;50.074;19.920;2022-11-20T07:12:32;-3.40;99.90
19920;DHT22;10122;50.074;19.920;2022-11-20T07:14:58;-3.40;99.90
19920;DHT22;10122;50.074;19.920;2022-11-20T07:17:24;-3.40;99.90
19920;DHT22;10122;50.074;19.920;2022-11-20T07:19:49;-3.40;99.90
19920;DHT22;10122;50.074;19.920;2022-11-20T07:22:15;-3.40;99.90
19920;DHT22;10122;50.074;19.920;2022-11-20T07:24:40;-3.30;99.90
19920;DHT22;10122;50.074;19.920;2022-11-20T07:27:06;-3.20;99.90
19920;DHT22;10122;50.074;19.920;2022-11-20T07:29:32;-3.10;99.90
19920;DHT22;10122;50.074;19.920;2022-11-20T07:31:57;-2.90;99.90
19920;DHT22;10122;50.074;19.920;2022-11-20T07:34:23;-2.90;99.90
19920;DHT22;10122;50.074;19.920;2022-11-20T07:36:49;-2.70;99.90
19920;DHT22;10122;50.074;19.920;2022-11-20T07:39:14;-2.50;99.90
19920;DHT22;10122;50.074;19.920;2022-11-20T07:41:40;-2.30;99.90
19920;DHT22;10122;50.074;19.920;2022-11-20T07:44:05;-2.00;99.90
19920;DHT22;10122;50.074;19.920;2022-11-20T07:46:31;-1.70;99.90
19920;DHT22;10122;50.074;19.920;2022-11-20T07:48:57;-1.60;99.90
19920;DHT22;10122;50.074;19.920;2022-11-20T07:51:22;-1.50;99.90
19920;DHT22;10122;50.074;19.920;2022-11-20T07:53:51;-1.50;99.90
19920;DHT22;10122;50.074;19.920;2022-11-20T07:56:16;-1.50;99.90
19920;DHT22;10122;50.074;19.920;2022-11-20T07:58:42;-1.50;99.90
19920;DHT22;10122;50.074;19.920;2022-11-20T08:01:08;-1.50;99.90
19920;DHT22;10122;50.074;19.920;2022-11-20T08:03:35;-1.40;99.90
19920;DHT22;10122;50.074;19.920;2022-11-20T08:06:04;-1.30;99.90
19920;DHT22;10122;50.074;19.920;2022-11-20T08:08:30;-1.20;99.90
19920;DHT22;10122;50.074;19.920;2022-11-20T08:10:58;-0.90;99.90
19920;DHT22;10122;50.074;19.920;2022-11-20T08:13:44;-0.80;99.90
19920;DHT22;10122;50.074;19.920;2022-11-20T08:16:28;-0.90;99.90
19920;DHT22;10122;50.074;19.920;2022-11-20T08:18:54;-1.00;99.90
19920;DHT22;10122;50.074;19.920;2022-11-20T08:21:20;-0.90;99.90
19920;DHT22;10122;50.074;19.920;2022-11-20T08:23:45;-1.00;99.90
19920;DHT22;10122;50.074;19.920;2022-11-20T08:26:11;-1.10;99.90
19920;DHT22;10122;50.074;19.920;2022-11-20T08:28:37;-1.10;99.90
19920;DHT22;10122;50.074;19.920;2022-11-20T08:31:03;-1.10;99.90
19920;DHT22;10122;50.074;19.920;2022-11-20T08:33:29;-0.90;99.90
19920;DHT22;10122;50.074;19.920;2022-11-20T08:36:05;-0.80;99.90
19920;DHT22;10122;50.074;19.920;2022-11-20T08:38:31;-0.80;99.90
19920;DHT22;10122;50.074;19.920;2022-11-20T08:41:01;-0.90;99.90
19920;DHT22;10122;50.074;19.920;2022-11-20T08:43:46;-1.00;99.90
19920;DHT22;10122;50.074;19.920;2022-11-20T08:46:12;-1.00;99.90
19920;DHT22;10122;50.074;19.920;2022-11-20T08:48:38;-1.00;99.90
19920;DHT22;10122;50.074;19.920;2022-11-20T08:51:03;-1.00;99.90
19920;DHT22;10122;50.074;19.920;2022-11-20T08:53:29;-0.90;99.90
19920;DHT22;10122;50.074;19.920;2022-11-20T08:55:56;-0.90;99.90
19920;DHT22;10122;50.074;19.920;2022-11-20T08:58:22;-0.80;99.90
19920;DHT22;10122;50.074;19.920;2022-11-20T09:00:48;-0.70;99.90
19920;DHT22;10122;50.074;19.920;2022-11-20T09:03:13;-0.70;99.90
19920;DHT22;10122;50.074;19.920;2022-11-20T09:05:39;-0.60;99.90
19920;DHT22;10122;50.074;19.920;2022-11-20T09:08:05;-0.50;99.90
19920;DHT22;10122;50.074;19.920;2022-11-20T09:10:30;-0.40;99.90
19920;DHT22;10122;50.074;19.920;2022-11-20T09:12:56;-0.50;99.90
19920;DHT22;10122;50.074;19.920;2022-11-20T09:15:22;-0.30;99.90
19920;DHT22;10122;50.074;19.920;2022-11-20T09:20:17;-0.30;99.90
19920;DHT22;10122;50.074;19.920;2022-11-20T09:22:44;-0.30;99.90
19920;DHT22;10122;50.074;19.920;2022-11-20T09:25:10;-0.30;99.90
19920;DHT22;10122;50.074;19.920;2022-11-20T09:27:35;-0.30;99.90
19920;DHT22;10122;50.074;19.920;2022-11-20T09:30:01;-0.40;99.90
19920;DHT22;10122;50.074;19.920;2022-11-20T09:32:27;-0.30;99.90
19920;DHT22;10122;50.074;19.920;2022-11-20T09:34:53;-0.30;99.90
19920;DHT22;10122;50.074;19.920;2022-11-20T09:37:18;-0.20;99.90
19920;DHT22;10122;50.074;19.920;2022-11-20T09:39:44;-0.20;99.90
19920;DHT22;10122;50.074;19.920;2022-11-20T09:50:35;0.10;99.90
19920;DHT22;10122;50.074;19.920;2022-11-20T09:53:36;0.20;99.90
19920;DHT22;10122;50.074;19.920;2022-11-20T09:56:09;0.30;99.90
19920;DHT22;10122;50.074;19.920;2022-11-20T09:58:42;0.10;99.90
19920;DHT22;10122;50.074;19.920;2022-11-20T10:01:12;0.10;99.90
19920;DHT22;10122;50.074;19.920;2022-11-20T10:04:12;0.10;99.90
19920;DHT22;10122;50.074;19.920;2022-11-20T10:07:08;-0.10;99.90
19920;DHT22;10122;50.074;19.920;2022-11-20T10:09:39;0.00;99.90
19920;DHT22;10122;50.074;19.920;2022-11-20T10:12:17;0.00;99.90
19920;DHT22;10122;50.074;19.920;2022-11-20T10:17:55;0.10;99.90
19920;DHT22;10122;50.074;19.920;2022-11-20T10:20:35;0.10;99.90
19920;DHT22;10122;50.074;19.920;2022-11-20T10:26:02;0.20;99.90
19920;DHT22;10122;50.074;19.920;2022-11-20T10:28:48;0.20;99.90
19920;DHT22;10122;50.074;19.920;2022-11-20T10:31:31;0.30;99.90
19920;DHT22;10122;50.074;19.920;2022-11-20T10:34:01;0.30;99.90
19920;DHT22;10122;50.074;19.920;2022-11-20T10:36:34;0.30;99.90
19920;DHT22;10122;50.074;19.920;2022-11-20T10:41:37;0.30;99.90
19920;DHT22;10122;50.074;19.920;2022-11-20T10:44:17;0.30;99.90
19920;DHT22;10122;50.074;19.920;2022-11-20T10:47:05;0.40;99.90
19920;DHT22;10122;50.074;19.920;2022-11-20T10:49:35;0.50;99.90
19920;DHT22;10122;50.074;19.920;2022-11-20T11:00:19;0.70;99.90
19920;DHT22;10122;50.074;19.920;2022-11-20T11:02:48;0.80;99.90
19920;DHT22;10122;50.074;19.920;2022-11-20T11:05:33;0.80;99.90
19920;DHT22;10122;50.074;19.920;2022-11-20T11:08:00;0.70;99.90
19920;DHT22;10122;50.074;19.920;2022-11-20T11:10:36;0.80;99.90
19920;DHT22;10122;50.074;19.920;2022-11-20T11:13:02;0.70;99.90
19920;DHT22;10122;50.074;19.920;2022-11-20T11:15:39;0.60;99.90
19920;DHT22;10122;50.074;19.920;2022-11-20T11:18:08;0.60;99.90
19920;DHT22;10122;50.074;19.920;2022-11-20T11:20:34;0.70;99.90
19920;DHT22;10122;50.074;19.920;2022-11-20T11:23:00;0.70;99.90
19920;DHT22;10122;50.074;19.920;2022-11-20T11:27:54;0.80;99.90
19920;DHT22;10122;50.074;19.920;2022-11-20T11:30:22;0.80;99.90
19920;DHT22;10122;50.074;19.920;2022-11-20T11:32:48;0.90;99.90
19920;DHT22;10122;50.074;19.920;2022-11-20T11:38:04;0.90;99.90
19920;DHT22;10122;50.074;19.920;2022-11-20T11:40:32;1.00;99.90
19920;DHT22;10122;50.074;19.920;2022-11-20T11:43:05;0.90;99.90
19920;DHT22;10122;50.074;19.920;2022-11-20T11:45:55;0.90;99.90
19920;DHT22;10122;50.074;19.920;2022-11-20T11:48:21;1.00;99.90
19920;DHT22;10122;50.074;19.920;2022-11-20T11:50:50;1.00;99.90
19920;DHT22;10122;50.074;19.920;2022-11-20T11:53:19;1.10;99.90
19920;DHT22;10122;50.074;19.920;2022-11-20T11:55:47;1.00;99.90
19920;DHT22;10122;50.074;19.920;2022-11-20T12:01:07;1.20;99.90
19920;DHT22;10122;50.074;19.920;2022-11-20T12:03:42;1.20;99.90
19920;DHT22;10122;50.074;19.920;2022-11-20T12:06:18;1.10;99.90
19920;DHT22;10122;50.074;19.920;2022-11-20T12:08:57;1.20;99.90
19920;DHT22;10122;50.074;19.920;2022-11-20T12:14:08;1.20;99.90
19920;DHT22;10122;50.074;19.920;2022-11-20T12:16:37;1.20;99.90
19920;DHT22;10122;50.074;19.920;2022-11-20T12:19:08;1.20;99.90
19920;DHT22;10122;50.074;19.920;2022-11-20T12:24:36;1.20;99.90
19920;DHT22;10122;50.074;19.920;2022-11-20T12:30:00;1.30;99.90
19920;DHT22;10122;50.074;19.920;2022-11-20T12:38:04;1.30;99.90
19920;DHT22;10122;50.074;19.920;2022-11-20T12:43:17;1.40;99.90
19920;DHT22;10122;50.074;19.920;2022-11-20T12:52:22;1.40;99.90
19920;DHT22;10122;50.074;19.920;2022-11-20T12:55:14;1.30;99.90
19920;DHT22;10122;50.074;19.920;2022-11-20T12:58:11;1.30;99.90
19920;DHT22;10122;50.074;19.920;2022-11-20T13:00:47;1.30;99.90
19920;DHT22;10122;50.074;19.920;2022-11-20T13:03:39;1.30;99.90
19920;DHT22;10122;50.074;19.920;2022-11-20T13:06:15;1.30;99.90
19920;DHT22;10122;50.074;19.920;2022-11-20T13:08:53;1.30;99.90
19920;DHT22;10122;50.074;19.920;2022-11-20T13:19:56;1.50;99.90
19920;DHT22;10122;50.074;19.920;2022-11-20T13:22:29;1.50;99.90
19920;DHT22;10122;50.074;19.920;2022-11-20T13:24:55;1.50;99.90
19920;DHT22;10122;50.074;19.920;2022-11-20T13:27:22;1.60;99.90
19920;DHT22;10122;50.074;19.920;2022-11-20T13:30:12;1.60;99.90
19920;DHT22;10122;50.074;19.920;2022-11-20T13:32:57;1.60;99.90
19920;DHT22;10122;50.074;19.920;2022-11-20T13:35:37;1.70;99.90
19920;DHT22;10122;50.074;19.920;2022-11-20T13:38:09;1.70;99.90
19920;DHT22;10122;50.074;19.920;2022-11-20T13:40:50;1.60;99.90
19920;DHT22;10122;50.074;19.920;2022-11-20T13:46:04;1.50;99.90
19920;DHT22;10122;50.074;19.920;2022-11-20T13:48:33;1.50;99.90
19920;DHT22;10122;50.074;19.920;2022-11-20T13:51:03;1.50;99.90
19920;DHT22;10122;50.074;19.920;2022-11-20T13:53:36;1.50;99.90
19920;DHT22;10122;50.074;19.920;2022-11-20T13:56:05;1.50;99.90
19920;DHT22;10122;50.074;19.920;2022-11-20T14:01:24;1.50;99.90
19920;DHT22;10122;50.074;19.920;2022-11-20T14:03:50;1.40;99.90
19920;DHT22;10122;50.074;19.920;2022-11-20T14:06:28;1.30;99.90
19920;DHT22;10122;50.074;19.920;2022-11-20T14:08:55;1.20;99.90
19920;DHT22;10122;50.074;19.920;2022-11-20T14:11:29;1.30;99.90
19920;DHT22;10122;50.074;19.920;2022-11-20T14:14:16;1.10;99.90
19920;DHT22;10122;50.074;19.920;2022-11-20T14:16:42;1.20;99.90
19920;DHT22;10122;50.074;19.920;2022-11-20T14:21:44;1.10;99.90
19920;DHT22;10122;50.074;19.920;2022-11-20T14:24:11;1.10;99.90
19920;DHT22;10122;50.074;19.920;2022-11-20T14:26:41;1.10;99.90
19920;DHT22;10122;50.074;19.920;2022-11-20T14:29:14;1.10;99.90
19920;DHT22;10122;50.074;19.920;2022-11-20T14:31:42;1.10;99.90
19920;DHT22;10122;50.074;19.920;2022-11-20T14:34:20;1.00;99.90
19920;DHT22;10122;50.074;19.920;2022-11-20T14:36:47;0.90;99.90
19920;DHT22;10122;50.074;19.920;2022-11-20T14:39:28;0.90;99.90
19920;DHT22;10122;50.074;19.920;2022-11-20T14:41:54;0.80;99.90
19920;DHT22;10122;50.074;19.920;2022-11-20T14:44:25;0.80;99.90
19920;DHT22;10122;50.074;19.920;2022-11-20T14:46:51;0.70;99.90
19920;DHT22;10122;50.074;19.920;2022-11-20T14:49:18;0.70;99.90
19920;DHT22;10122;50.074;19.920;2022-11-20T14:51:44;0.70;99.90
19920;DHT22;10122;50.074;19.920;2022-11-20T14:54:15;0.60;99.90
19920;DHT22;10122;50.074;19.920;2022-11-20T14:56:41;0.60;99.90
19920;DHT22;10122;50.074;19.920;2022-11-20T14:59:08;0.60;99.90
19920;DHT22;10122;50.074;19.920;2022-11-20T15:01:35;0.50;99.90
19920;DHT22;10122;50.074;19.920;2022-11-20T15:04:11;0.40;99.90
19920;DHT22;10122;50.074;19.920;2022-11-20T15:06:37;0.50;99.90
19920;DHT22;10122;50.074;19.920;2022-11-20T15:09:15;0.40;99.90
19920;DHT22;10122;50.074;19.920;2022-11-20T15:11:57;0.40;99.90
19920;DHT22;10122;50.074;19.920;2022-11-20T15:14:25;0.40;99.90
19920;DHT22;10122;50.074;19.920;2022-11-20T15:16:52;0.40;99.90
19920;DHT22;10122;50.074;19.920;2022-11-20T15:19:21;0.40;99.90
19920;DHT22;10122;50.074;19.920;2022-11-20T15:21:47;0.40;99.90
19920;DHT22;10122;50.074;19.920;2022-11-20T15:24:13;0.50;99.90
19920;DHT22;10122;50.074;19.920;2022-11-20T15:26:39;0.50;99.90
19920;DHT22;10122;50.074;19.920;2022-11-20T15:29:09;0.50;99.90
19920;DHT22;10122;50.074;19.920;2022-11-20T15:31:36;0.50;99.90
19920;DHT22;10122;50.074;19.920;2022-11-20T15:34:02;0.40;99.90
19920;DHT22;10122;50.074;19.920;2022-11-20T15:36:28;0.40;99.90
19920;DHT22;10122;50.074;19.920;2022-11-20T15:38:54;0.30;99.90
19920;DHT22;10122;50.074;19.920;2022-11-20T15:41:19;0.60;99.90
19920;DHT22;10122;50.074;19.920;2022-11-20T15:43:45;0.70;99.90
19920;DHT22;10122;50.074;19.920;2022-11-20T15:46:25;0.70;99.90
19920;DHT22;10122;50.074;19.920;2022-11-20T15:48:54;0.70;99.90
19920;DHT22;10122;50.074;19.920;2022-11-20T15:51:27;0.60;99.90
19920;DHT22;10122;50.074;19.920;2022-11-20T15:53:54;0.60;99.90
19920;DHT22;10122;50.074;19.920;2022-11-20T15:56:20;0.50;99.90
19920;DHT22;10122;50.074;19.920;2022-11-20T15:58:46;0.50;99.90
19920;DHT22;10122;50.074;19.920;2022-11-20T16:01:13;0.40;99.90
19920;DHT22;10122;50.074;19.920;2022-11-20T16:03:39;0.40;99.90
19920;DHT22;10122;50.074;19.920;2022-11-20T16:06:05;0.40;99.90
19920;DHT22;10122;50.074;19.920;2022-11-20T16:08:31;0.40;99.90
19920;DHT22;10122;50.074;19.920;2022-11-20T16:10:57;0.30;99.90
19920;DHT22;10122;50.074;19.920;2022-11-20T16:13:22;0.30;99.90
19920;DHT22;10122;50.074;19.920;2022-11-20T16:16:32;0.30;99.90
19920;DHT22;10122;50.074;19.920;2022-11-20T16:18:57;0.20;99.90
19920;DHT22;10122;50.074;19.920;2022-11-20T16:21:23;0.20;99.90
19920;DHT22;10122;50.074;19.920;2022-11-20T16:24:03;0.20;99.90
19920;DHT22;10122;50.074;19.920;2022-11-20T16:26:30;0.30;99.90
19920;DHT22;10122;50.074;19.920;2022-11-20T16:28:57;0.30;99.90
19920;DHT22;10122;50.074;19.920;2022-11-20T16:31:23;0.30;99.90
19920;DHT22;10122;50.074;19.920;2022-11-20T16:33:50;0.20;99.90
19920;DHT22;10122;50.074;19.920;2022-11-20T16:36:16;0.10;99.90
19920;DHT22;10122;50.074;19.920;2022-11-20T16:38:42;0.00;99.90
19920;DHT22;10122;50.074;19.920;2022-11-20T16:41:08;0.10;99.90
19920;DHT22;10122;50.074;19.920;2022-11-20T16:43:48;0.20;99.90
19920;DHT22;10122;50.074;19.920;2022-11-20T16:46:15;0.20;99.90
19920;DHT22;10122;50.074;19.920;2022-11-20T16:48:41;0.20;99.90
19920;DHT22;10122;50.074;19.920;2022-11-20T16:51:09;0.30;99.90
19920;DHT22;10122;50.074;19.920;2022-11-20T16:53:35;0.30;99.90
19920;DHT22;10122;50.074;19.920;2022-11-20T16:56:15;0.30;99.90